createdAt,value
2023-01-24T00:02:06.929Z,103471.00
2023-01-24T00:04:52.824Z,103467.50
2023-01-24T00:07:38.251Z,103469.75
2023-01-24T00:10:23.645Z,103474.69
2023-01-24T00:13:12.540Z,103476.22
2023-01-24T00:16:14.435Z,103474.50
2023-01-24T00:18:59.936Z,103475.31
2023-01-24T00:21:45.403Z,103474.50
2023-01-24T00:24:31.851Z,103477.47
2023-01-24T00:27:17.997Z,103472.66
2023-01-24T00:30:05.409Z,103472.75
2023-01-24T00:32:50.812Z,103482.97
2023-01-24T00:35:36.540Z,103479.91
2023-01-24T00:38:22.837Z,103486.19
2023-01-24T00:41:08.844Z,103481.50
2023-01-24T00:43:54.453Z,103486.53
2023-01-24T00:46:40.107Z,103490.03
2023-01-24T00:49:25.645Z,103493.72
2023-01-24T00:52:11.482Z,103500.13
2023-01-24T00:54:57.217Z,103504.97
2023-01-24T00:57:42.669Z,103497.22
2023-01-24T01:00:28.005Z,103496.56
2023-01-24T01:03:20.676Z,103505.06
2023-01-24T01:06:14.356Z,103500.69
2023-01-24T01:08:59.997Z,103498.13
2023-01-24T01:11:45.360Z,103484.22
2023-01-24T01:14:30.634Z,103492.06
2023-01-24T01:17:16.108Z,103492.97
2023-01-24T01:20:01.727Z,103496.56
2023-01-24T01:22:47.718Z,103488.81
2023-01-24T01:25:33.673Z,103484.09
2023-01-24T01:28:19.055Z,103477.25
2023-01-24T01:31:04.738Z,103475.69
2023-01-24T01:33:50.345Z,103476.38
2023-01-24T01:36:35.698Z,103475.59
2023-01-24T01:39:21.165Z,103479.94
2023-01-24T01:42:06.493Z,103480.75
2023-01-24T01:44:54.896Z,103477.94
2023-01-24T01:47:40.410Z,103472.53
2023-01-24T01:50:35.506Z,103470.53
2023-01-24T01:53:23.873Z,103474.78
2023-01-24T01:56:22.222Z,103470.44
2023-01-24T01:59:15.533Z,103472.09
2023-01-24T02:02:05.140Z,103479.06
2023-01-24T02:05:06.319Z,103486.38
2023-01-24T02:08:02.837Z,103485.00
2023-01-24T02:11:08.672Z,103483.66
2023-01-24T02:14:14.577Z,103492.97
2023-01-24T02:17:00.145Z,103491.53
2023-01-24T02:20:17.843Z,103489.81
2023-01-24T02:23:31.058Z,103494.31
2023-01-24T02:26:24.923Z,103503.94
2023-01-24T02:29:14.062Z,103488.91
2023-01-24T02:32:06.705Z,103500.81
2023-01-24T02:34:52.310Z,103499.44
2023-01-24T02:37:41.701Z,103506.94
2023-01-24T02:40:30.419Z,103511.09
2023-01-24T02:43:18.722Z,103507.69
2023-01-24T02:46:04.685Z,103514.66
2023-01-24T02:48:53.376Z,103508.81
2023-01-24T02:51:58.549Z,103520.09
2023-01-24T02:54:44.029Z,103514.00
2023-01-24T02:57:47.833Z,103524.06
2023-01-24T03:00:39.642Z,103530.00
2023-01-24T03:03:25.834Z,103527.44
2023-01-24T03:06:13.213Z,103526.03
2023-01-24T03:08:58.719Z,103534.22
2023-01-24T03:11:53.532Z,103540.75
2023-01-24T03:14:57.438Z,103554.44
2023-01-24T03:18:01.471Z,103566.13
2023-01-24T03:21:07.521Z,103561.28
2023-01-24T03:24:12.111Z,103573.31
2023-01-24T03:27:16.221Z,103573.25
2023-01-24T03:30:21.123Z,103572.03
2023-01-24T03:33:25.133Z,103579.41
2023-01-24T03:36:14.441Z,103585.63
2023-01-24T03:39:19.562Z,103590.78
2023-01-24T03:42:05.112Z,103583.53
2023-01-24T03:44:51.080Z,103587.22
2023-01-24T03:47:36.315Z,103590.78
2023-01-24T03:50:45.247Z,103588.38
2023-01-24T03:53:32.422Z,103583.75
2023-01-24T03:56:18.490Z,103588.22
2023-01-24T03:59:09.438Z,103591.38
2023-01-24T04:01:58.059Z,103596.91
2023-01-24T04:05:05.954Z,103590.03
2023-01-24T04:07:51.552Z,103590.03
2023-01-24T04:10:36.862Z,103595.41
2023-01-24T04:13:22.185Z,103598.72
2023-01-24T04:16:08.998Z,103600.75
2023-01-24T04:19:20.979Z,103607.66
2023-01-24T04:22:06.624Z,103607.84
2023-01-24T04:24:54.355Z,103609.72
2023-01-24T04:27:42.152Z,103618.56
2023-01-24T04:30:30.714Z,103623.22
2023-01-24T04:33:17.944Z,103623.31
2023-01-24T04:36:03.547Z,103623.63
2023-01-24T04:38:49.156Z,103625.31
2023-01-24T04:41:43.571Z,103621.81
2023-01-24T04:44:28.952Z,103621.03
2023-01-24T04:47:15.783Z,103622.78
2023-01-24T04:50:02.408Z,103630.06
2023-01-24T04:52:48.840Z,103621.72
2023-01-24T04:55:36.447Z,103620.00
2023-01-24T04:58:21.997Z,103624.06
2023-01-24T05:01:08.008Z,103621.13
2023-01-24T05:04:00.974Z,103622.16
2023-01-24T05:06:47.914Z,103623.13
2023-01-24T05:09:33.574Z,103618.13
2023-01-24T05:12:23.064Z,103615.44
2023-01-24T05:15:08.834Z,103609.94
2023-01-24T05:17:54.073Z,103610.34
2023-01-24T05:20:43.114Z,103602.31
2023-01-24T05:23:28.518Z,103604.63
2023-01-24T05:26:13.829Z,103603.97
2023-01-24T05:29:00.404Z,103599.81
2023-01-24T05:31:49.795Z,103596.94
2023-01-24T05:34:34.989Z,103592.16
2023-01-24T05:37:23.451Z,103589.97
2023-01-24T05:40:09.771Z,103591.31
2023-01-24T05:42:57.126Z,103575.66
2023-01-24T05:45:42.636Z,103575.50
2023-01-24T05:48:28.653Z,103575.47
2023-01-24T05:51:17.380Z,103570.88
2023-01-24T05:54:03.296Z,103568.97
2023-01-24T05:57:10.483Z,103576.41
2023-01-24T06:00:16.777Z,103559.63
2023-01-24T06:03:19.348Z,103561.47
2023-01-24T06:06:05.513Z,103559.81
2023-01-24T06:08:52.563Z,103557.41
2023-01-24T06:11:40.112Z,103563.63
2023-01-24T06:14:30.839Z,103558.47
2023-01-24T06:17:16.111Z,103563.69
2023-01-24T06:20:01.628Z,103561.63
2023-01-24T06:22:53.765Z,103564.31
2023-01-24T06:25:41.607Z,103575.31
2023-01-24T06:28:27.419Z,103570.94
2023-01-24T06:31:28.799Z,103582.22
2023-01-24T06:34:21.922Z,103581.75
2023-01-24T06:37:29.046Z,103584.91
2023-01-24T06:40:16.899Z,103587.72
2023-01-24T06:43:02.627Z,103600.06
2023-01-24T06:45:48.360Z,103597.69
2023-01-24T06:48:33.853Z,103596.25
2023-01-24T06:51:19.179Z,103599.13
2023-01-24T06:54:04.464Z,103605.88
2023-01-24T06:56:49.935Z,103602.31
2023-01-24T06:59:35.248Z,103602.78
2023-01-24T07:02:20.515Z,103601.63
2023-01-24T07:05:06.547Z,103601.13
2023-01-24T07:07:51.798Z,103605.44
2023-01-24T07:10:37.254Z,103609.31
2023-01-24T07:13:22.582Z,103606.31
2023-01-24T07:16:08.279Z,103598.31
2023-01-24T07:18:54.267Z,103601.41
2023-01-24T07:21:41.051Z,103605.09
2023-01-24T07:24:30.469Z,103605.28
2023-01-24T07:27:16.316Z,103600.69
2023-01-24T07:30:01.886Z,103607.97
2023-01-24T07:32:47.223Z,103612.75
2023-01-24T07:35:32.671Z,103615.84
2023-01-24T07:38:17.953Z,103611.69
2023-01-24T07:41:08.263Z,103611.50
2023-01-24T07:43:53.957Z,103611.50
2023-01-24T07:46:39.298Z,103614.38
2023-01-24T07:49:24.725Z,103620.44
2023-01-24T07:52:10.335Z,103612.47
2023-01-24T07:54:55.971Z,103619.94
2023-01-24T07:57:41.367Z,103628.88
2023-01-24T08:00:27.209Z,103617.66
2023-01-24T08:03:12.605Z,103631.16
2023-01-24T08:05:57.866Z,103631.97
2023-01-24T08:08:43.151Z,103632.19
2023-01-24T08:11:28.587Z,103630.88
2023-01-24T08:14:13.839Z,103627.88
2023-01-24T08:16:59.323Z,103640.91
2023-01-24T08:19:59.928Z,103639.47
2023-01-24T08:22:56.998Z,103642.63
2023-01-24T08:25:42.997Z,103647.03
2023-01-24T08:28:28.701Z,103640.16
2023-01-24T08:31:14.351Z,103645.31
2023-01-24T08:34:00.103Z,103643.13
2023-01-24T08:36:45.716Z,103645.19
2023-01-24T08:39:31.189Z,103643.84
2023-01-24T08:42:16.608Z,103646.78
2023-01-24T08:45:02.043Z,103642.28
2023-01-24T08:47:53.042Z,103643.94
2023-01-24T08:50:38.891Z,103648.59
2023-01-24T08:53:24.402Z,103645.59
2023-01-24T08:56:09.772Z,103645.34
2023-01-24T08:58:55.418Z,103650.03
2023-01-24T09:01:41.904Z,103643.94
2023-01-24T09:04:30.079Z,103644.66
2023-01-24T09:07:15.985Z,103643.81
2023-01-24T09:10:01.161Z,103645.13
2023-01-24T09:12:46.710Z,103650.72
2023-01-24T09:15:32.217Z,103651.03
2023-01-24T09:18:17.778Z,103653.22
2023-01-24T09:21:04.335Z,103648.34
2023-01-24T09:23:49.633Z,103657.44
2023-01-24T09:26:35.120Z,103647.69
2023-01-24T09:29:20.516Z,103653.50
2023-01-24T09:32:06.595Z,103660.97
2023-01-24T09:34:52.260Z,103655.28
2023-01-24T09:37:37.563Z,103664.25
2023-01-24T09:40:28.391Z,103658.75
2023-01-24T09:43:26.026Z,103664.47
2023-01-24T09:46:18.028Z,103655.59
2023-01-24T09:49:24.168Z,103658.66
2023-01-24T09:52:18.798Z,103653.16
2023-01-24T09:55:24.161Z,103663.94
2023-01-24T09:58:19.833Z,103666.31
2023-01-24T10:01:16.139Z,103665.63
2023-01-24T10:04:01.653Z,103672.81
2023-01-24T10:07:00.429Z,103672.09
2023-01-24T10:10:11.030Z,103676.59
2023-01-24T10:13:14.891Z,103681.16
2023-01-24T10:16:15.992Z,103677.84
2023-01-24T10:19:18.481Z,103675.44
2023-01-24T10:22:22.468Z,103670.53
2023-01-24T10:25:17.985Z,103666.56
2023-01-24T10:28:04.226Z,103662.66
2023-01-24T10:30:56.710Z,103671.50
2023-01-24T10:33:48.775Z,103672.69
2023-01-24T10:36:44.402Z,103668.66
2023-01-24T10:39:29.888Z,103675.84
2023-01-24T10:42:27.623Z,103678.00
2023-01-24T10:45:44.846Z,103685.34
2023-01-24T10:48:46.270Z,103693.50
2023-01-24T10:51:31.604Z,103689.59
2023-01-24T10:54:26.051Z,103684.06
2023-01-24T10:57:19.977Z,103685.31
2023-01-24T11:00:28.976Z,103697.25
2023-01-24T11:03:24.383Z,103695.19
2023-01-24T11:06:29.799Z,103686.22
2023-01-24T11:09:25.504Z,103693.66
2023-01-24T11:12:14.642Z,103688.97
2023-01-24T11:15:00.236Z,103675.06
2023-01-24T11:17:45.973Z,103674.06
2023-01-24T11:20:34.209Z,103673.19
2023-01-24T11:23:22.513Z,103662.84
2023-01-24T11:26:25.249Z,103656.34
2023-01-24T11:29:19.723Z,103645.31
2023-01-24T11:32:17.194Z,103639.59
2023-01-24T11:35:17.541Z,103623.25
2023-01-24T11:38:26.693Z,103599.91
2023-01-24T11:41:22.735Z,103575.72
2023-01-24T11:44:23.324Z,103556.81
2023-01-24T11:47:34.030Z,103547.59
2023-01-24T11:50:29.637Z,103529.53
2023-01-24T11:53:27.602Z,103520.31
2023-01-24T11:56:23.117Z,103519.66
2023-01-24T11:59:26.646Z,103512.94
2023-01-24T12:02:49.212Z,103507.13
2023-01-24T12:05:42.472Z,103499.75
2023-01-24T12:08:57.476Z,103494.22
2023-01-24T12:11:46.656Z,103493.91
2023-01-24T12:14:38.587Z,103498.03
2023-01-24T12:17:30.972Z,103497.84
2023-01-24T12:20:31.663Z,103494.97
2023-01-24T12:23:35.248Z,103484.63
2023-01-24T12:26:46.399Z,103486.75
2023-01-24T12:29:43.844Z,103486.25
2023-01-24T12:32:46.605Z,103477.88
2023-01-24T12:35:44.254Z,103477.81
2023-01-24T12:38:37.097Z,103473.63
2023-01-24T12:41:36.802Z,103481.44
2023-01-24T12:44:30.276Z,103479.16
2023-01-24T12:47:40.506Z,103487.94
2023-01-24T12:50:41.741Z,103477.94
2023-01-24T12:53:40.833Z,103484.25
2023-01-24T12:56:48.317Z,103480.25
2023-01-24T12:59:34.898Z,103476.72
2023-01-24T13:02:32.511Z,103476.25
2023-01-24T13:05:33.064Z,103470.31
2023-01-24T13:08:49.707Z,103459.19
2023-01-24T13:11:42.327Z,103468.59
2023-01-24T13:14:39.419Z,103466.22
2023-01-24T13:17:43.211Z,103463.75
2023-01-24T13:20:52.628Z,103461.03
2023-01-24T13:24:01.933Z,103467.75
2023-01-24T13:27:01.829Z,103467.56
2023-01-24T13:30:14.774Z,103475.50
2023-01-24T13:33:03.833Z,103474.63
2023-01-24T13:35:53.693Z,103472.84
2023-01-24T13:38:44.205Z,103466.50
2023-01-24T13:41:29.584Z,103466.72
2023-01-24T13:44:30.572Z,103463.22
2023-01-24T13:47:16.794Z,103465.88
2023-01-24T13:50:04.853Z,103470.09
2023-01-24T13:53:01.205Z,103464.69
2023-01-24T13:56:04.470Z,103470.09
2023-01-24T13:58:53.342Z,103469.72
2023-01-24T14:01:46.386Z,103468.31
2023-01-24T14:04:44.315Z,103464.50
2023-01-24T14:07:36.932Z,103462.84
2023-01-24T14:10:44.555Z,103462.19
2023-01-24T14:13:42.396Z,103460.22
2023-01-24T14:16:27.738Z,103455.56
2023-01-24T14:19:18.739Z,103452.66
2023-01-24T14:22:10.072Z,103457.75
2023-01-24T14:25:05.548Z,103456.91
2023-01-24T14:28:14.228Z,103460.97
2023-01-24T14:31:09.007Z,103460.03
2023-01-24T14:34:17.589Z,103467.56
2023-01-24T14:37:12.464Z,103469.03
2023-01-24T14:40:23.307Z,103471.78
2023-01-24T14:43:11.129Z,103475.25
2023-01-24T14:45:56.395Z,103466.63
2023-01-24T14:48:41.680Z,103464.19
2023-01-24T14:51:27.253Z,103460.97
2023-01-24T14:54:24.934Z,103454.94
2023-01-24T14:57:30.880Z,103448.69
2023-01-24T15:00:18.876Z,103443.25
2023-01-24T15:03:06.236Z,103442.84
2023-01-24T15:05:56.236Z,103438.53
2023-01-24T15:08:42.124Z,103432.66
2023-01-24T15:11:35.343Z,103438.66
2023-01-24T15:14:21.397Z,103442.72
2023-01-24T15:17:20.980Z,103439.97
2023-01-24T15:20:11.770Z,103441.81
2023-01-24T15:23:03.237Z,103437.22
2023-01-24T15:25:48.941Z,103446.75
2023-01-24T15:28:34.490Z,103447.41
2023-01-24T15:31:23.000Z,103445.91
2023-01-24T15:34:20.111Z,103443.75
2023-01-24T15:37:05.836Z,103442.59
2023-01-24T15:39:59.244Z,103446.56
2023-01-24T15:43:07.401Z,103454.19
2023-01-24T15:46:15.016Z,103454.94
2023-01-24T15:49:33.708Z,103454.53
2023-01-24T15:52:21.801Z,103461.09
2023-01-24T15:55:08.532Z,103471.16
2023-01-24T15:57:54.119Z,103476.97
2023-01-24T16:00:39.920Z,103480.94
2023-01-24T16:03:26.163Z,103480.50
2023-01-24T16:06:11.895Z,103486.97
2023-01-24T16:08:57.196Z,103489.22
2023-01-24T16:11:49.609Z,103490.69
2023-01-24T16:14:36.484Z,103490.59
2023-01-24T16:17:24.961Z,103497.63
2023-01-24T16:20:34.606Z,103501.09
2023-01-24T16:23:19.979Z,103500.44
2023-01-24T16:26:05.847Z,103497.09
2023-01-24T16:28:52.169Z,103499.00
2023-01-24T16:31:37.811Z,103504.41
2023-01-24T16:34:23.757Z,103510.56
2023-01-24T16:37:10.122Z,103515.03
2023-01-24T16:39:56.992Z,103507.22
2023-01-24T16:42:45.726Z,103507.22
2023-01-24T16:45:31.546Z,103504.63
2023-01-24T16:48:18.148Z,103500.13
2023-01-24T16:51:10.308Z,103496.66
2023-01-24T16:53:58.732Z,103493.06
2023-01-24T16:56:46.165Z,103495.66
2023-01-24T16:59:31.829Z,103499.00
2023-01-24T17:02:17.797Z,103498.13
2023-01-24T17:05:03.062Z,103497.25
2023-01-24T17:07:51.740Z,103488.38
2023-01-24T17:10:37.288Z,103488.28
2023-01-24T17:13:22.763Z,103491.72
2023-01-24T17:16:11.001Z,103489.09
2023-01-24T17:18:56.546Z,103489.94
2023-01-24T17:21:42.705Z,103476.00
2023-01-24T17:24:28.218Z,103477.72
2023-01-24T17:27:13.533Z,103476.84
2023-01-24T17:29:58.903Z,103464.50
2023-01-24T17:32:44.484Z,103475.66
2023-01-24T17:35:30.026Z,103472.97
2023-01-24T17:38:16.352Z,103472.91
2023-01-24T17:41:02.688Z,103466.69
2023-01-24T17:43:53.090Z,103470.16
2023-01-24T17:46:39.304Z,103467.47
2023-01-24T17:49:24.899Z,103465.69
2023-01-24T17:52:10.561Z,103471.63
2023-01-24T17:54:57.447Z,103469.75
2023-01-24T17:57:43.796Z,103480.09
2023-01-24T18:00:29.420Z,103483.59
2023-01-24T18:03:14.930Z,103489.63
2023-01-24T18:06:03.145Z,103489.53
2023-01-24T18:08:48.593Z,103494.81
2023-01-24T18:11:34.255Z,103494.81
2023-01-24T18:14:19.802Z,103492.06
2023-01-24T18:17:04.928Z,103499.88
2023-01-24T18:19:50.235Z,103492.88
2023-01-24T18:22:35.737Z,103497.19
2023-01-24T18:25:22.203Z,103501.19
2023-01-24T18:28:08.136Z,103499.28
2023-01-24T18:30:53.830Z,103497.59
2023-01-24T18:33:39.836Z,103495.81
2023-01-24T18:36:26.603Z,103497.38
2023-01-24T18:39:12.095Z,103497.03
2023-01-24T18:41:58.389Z,103500.38
2023-01-24T18:44:43.637Z,103504.69
2023-01-24T18:47:29.515Z,103505.56
2023-01-24T18:50:15.041Z,103501.19
2023-01-24T18:53:00.443Z,103495.00
2023-01-24T18:55:45.712Z,103498.59
2023-01-24T18:58:32.716Z,103492.66
2023-01-24T19:01:24.493Z,103488.56
2023-01-24T19:04:10.779Z,103491.47
2023-01-24T19:07:02.552Z,103488.25
2023-01-24T19:09:47.824Z,103482.25
2023-01-24T19:12:33.287Z,103482.25
2023-01-24T19:15:19.613Z,103481.34
2023-01-24T19:18:05.005Z,103472.63
2023-01-24T19:20:50.330Z,103473.38
2023-01-24T19:23:39.819Z,103476.78
2023-01-24T19:26:25.715Z,103474.19
2023-01-24T19:29:11.492Z,103476.88
2023-01-24T19:31:57.251Z,103478.66
2023-01-24T19:34:43.208Z,103469.97
2023-01-24T19:37:28.790Z,103472.47
2023-01-24T19:40:14.229Z,103470.75
2023-01-24T19:42:59.558Z,103467.97
2023-01-24T19:45:45.048Z,103460.94
2023-01-24T19:48:30.703Z,103459.06
2023-01-24T19:51:16.306Z,103463.28
2023-01-24T19:54:02.390Z,103471.94
2023-01-24T19:56:48.639Z,103476.22
2023-01-24T19:59:34.257Z,103471.94
2023-01-24T20:02:19.604Z,103469.31
2023-01-24T20:05:05.722Z,103468.34
2023-01-24T20:07:56.028Z,103466.53
2023-01-24T20:10:41.643Z,103467.38
2023-01-24T20:13:31.532Z,103469.91
2023-01-24T20:16:22.853Z,103463.78
2023-01-24T20:19:18.499Z,103473.22
2023-01-24T20:22:09.499Z,103473.22
2023-01-24T20:24:54.676Z,103475.69
2023-01-24T20:27:40.361Z,103479.91
2023-01-24T20:30:25.734Z,103472.09
2023-01-24T20:33:11.132Z,103473.00
2023-01-24T20:36:04.802Z,103483.34
2023-01-24T20:38:55.525Z,103478.06
2023-01-24T20:41:43.262Z,103476.25
2023-01-24T20:44:28.531Z,103478.63
2023-01-24T20:47:14.390Z,103476.69
2023-01-24T20:49:59.848Z,103475.59
2023-01-24T20:52:45.240Z,103478.13
2023-01-24T20:55:30.633Z,103471.31
2023-01-24T20:58:15.879Z,103474.00
2023-01-24T21:01:13.444Z,103474.81
2023-01-24T21:04:01.319Z,103475.75
2023-01-24T21:06:47.081Z,103468.94
2023-01-24T21:09:32.612Z,103466.44
2023-01-24T21:12:17.860Z,103472.59
2023-01-24T21:15:04.261Z,103468.31
2023-01-24T21:17:49.968Z,103471.84
2023-01-24T21:20:35.342Z,103464.06
2023-01-24T21:23:20.708Z,103459.72
2023-01-24T21:26:07.839Z,103456.25
2023-01-24T21:28:55.120Z,103449.25
2023-01-24T21:31:41.038Z,103449.19
2023-01-24T21:34:27.077Z,103448.22
2023-01-24T21:37:26.699Z,103444.56
2023-01-24T21:40:13.808Z,103445.31
2023-01-24T21:42:59.104Z,103445.31
2023-01-24T21:45:52.431Z,103451.41
2023-01-24T21:48:56.828Z,103454.88
2023-01-24T21:51:44.078Z,103451.47
2023-01-24T21:54:32.823Z,103458.56
2023-01-24T21:57:37.063Z,103448.22
2023-01-24T22:00:22.704Z,103447.50
2023-01-24T22:03:26.083Z,103446.66
2023-01-24T22:06:11.744Z,103447.66
2023-01-24T22:08:57.866Z,103435.50
2023-01-24T22:11:43.399Z,103438.13
2023-01-24T22:14:31.775Z,103432.09
2023-01-24T22:17:22.535Z,103436.50
2023-01-24T22:20:15.986Z,103438.19
2023-01-24T22:23:20.068Z,103447.78
2023-01-24T22:26:11.944Z,103441.72
2023-01-24T22:28:57.859Z,103439.91
2023-01-24T22:31:44.130Z,103439.03
2023-01-24T22:34:29.779Z,103438.94
2023-01-24T22:37:21.363Z,103437.09
2023-01-24T22:40:07.521Z,103437.00
2023-01-24T22:42:57.601Z,103433.41
2023-01-24T22:45:43.255Z,103427.25
2023-01-24T22:48:28.498Z,103434.06
2023-01-24T22:51:13.833Z,103425.38
2023-01-24T22:53:59.091Z,103427.03
2023-01-24T22:56:44.855Z,103416.50
2023-01-24T22:59:30.775Z,103425.22
2023-01-24T23:02:16.439Z,103426.03
2023-01-24T23:05:01.958Z,103430.44
2023-01-24T23:07:47.472Z,103429.53
2023-01-24T23:10:32.815Z,103436.50
2023-01-24T23:13:36.840Z,103432.13
2023-01-24T23:16:29.070Z,103437.44
2023-01-24T23:19:42.460Z,103436.59
2023-01-24T23:22:30.831Z,103435.72
2023-01-24T23:25:17.779Z,103430.59
2023-01-24T23:28:03.257Z,103433.19
2023-01-24T23:30:57.915Z,103432.38
2023-01-24T23:33:47.569Z,103426.28
2023-01-24T23:36:34.160Z,103428.88
2023-01-24T23:39:19.460Z,103431.41
2023-01-24T23:42:04.714Z,103424.50
2023-01-24T23:44:50.279Z,103425.38
2023-01-24T23:47:35.846Z,103421.91
2023-01-24T23:50:21.163Z,103413.25
2023-01-24T23:53:07.255Z,103410.75
2023-01-24T23:55:52.885Z,103413.34
2023-01-24T23:58:38.526Z,103404.66
